createdAt,value
2023-03-22T00:00:48.050Z,7.96
2023-03-22T00:03:51.825Z,8.07
2023-03-22T00:06:53.923Z,7.98
2023-03-22T00:09:56.014Z,7.94
2023-03-22T00:12:58.098Z,7.84
2023-03-22T00:16:02.796Z,7.76
2023-03-22T00:19:05.035Z,7.83
2023-03-22T00:22:08.643Z,8.00
2023-03-22T00:25:10.917Z,8.16
2023-03-22T00:28:15.055Z,8.10
2023-03-22T00:31:17.312Z,7.99
2023-03-22T00:34:20.356Z,7.94
2023-03-22T00:37:22.396Z,8.17
2023-03-22T00:40:24.587Z,8.04
2023-03-22T00:43:26.599Z,8.05
2023-03-22T00:46:28.699Z,8.17
2023-03-22T00:49:31.414Z,8.34
2023-03-22T00:52:33.884Z,8.53
2023-03-22T00:55:36.312Z,8.40
2023-03-22T00:58:39.126Z,8.31
2023-03-22T01:01:41.664Z,8.36
2023-03-22T01:04:48.291Z,8.39
2023-03-22T01:07:55.058Z,8.33
2023-03-22T01:10:57.220Z,8.45
2023-03-22T01:13:59.736Z,8.23
2023-03-22T01:17:01.918Z,8.09
2023-03-22T01:20:04.852Z,8.06
2023-03-22T01:23:06.939Z,8.27
2023-03-22T01:26:09.099Z,8.19
2023-03-22T01:29:12.508Z,8.14
2023-03-22T01:32:14.662Z,8.21
2023-03-22T01:35:16.727Z,8.20
2023-03-22T01:38:20.050Z,8.36
2023-03-22T01:41:30.028Z,8.56
2023-03-22T01:44:32.559Z,8.49
2023-03-22T01:47:37.019Z,8.65
2023-03-22T01:50:42.711Z,8.63
2023-03-22T01:53:50.455Z,8.65
2023-03-22T01:56:53.401Z,8.42
2023-03-22T02:00:14.032Z,8.51
2023-03-22T02:03:30.643Z,8.38
2023-03-22T02:06:38.133Z,8.16
2023-03-22T02:09:53.466Z,8.34
2023-03-22T02:13:08.810Z,8.28
2023-03-22T02:16:38.373Z,8.11
2023-03-22T02:20:20.636Z,7.98
2023-03-22T02:23:55.679Z,8.12
2023-03-22T02:27:12.793Z,7.97
2023-03-22T02:30:24.079Z,7.88
2023-03-22T02:33:41.804Z,8.08
2023-03-22T02:36:44.056Z,8.15
2023-03-22T02:39:49.548Z,8.08
2023-03-22T02:42:54.535Z,8.04
2023-03-22T02:46:14.826Z,8.16
2023-03-22T02:49:33.258Z,8.21
2023-03-22T02:52:53.983Z,8.17
2023-03-22T02:55:59.356Z,7.84
2023-03-22T02:59:04.909Z,7.57
2023-03-22T03:02:10.738Z,7.54
2023-03-22T03:05:15.096Z,7.49
2023-03-22T03:08:19.293Z,7.23
2023-03-22T03:11:22.504Z,7.17
2023-03-22T03:14:28.150Z,7.28
2023-03-22T03:17:55.413Z,7.46
2023-03-22T03:21:06.589Z,7.55
2023-03-22T03:24:19.661Z,7.49
2023-03-22T03:27:28.224Z,7.59
2023-03-22T03:30:49.671Z,7.40
2023-03-22T03:34:00.818Z,7.08
2023-03-22T03:37:19.791Z,6.79
2023-03-22T03:40:31.386Z,6.74
2023-03-22T03:43:34.820Z,6.79
2023-03-22T03:46:37.214Z,6.78
2023-03-22T03:49:39.795Z,6.94
2023-03-22T03:52:42.991Z,6.97
2023-03-22T03:55:45.353Z,7.29
2023-03-22T03:58:48.526Z,7.50
2023-03-22T04:01:51.858Z,7.74
2023-03-22T04:05:03.928Z,7.81
2023-03-22T04:08:06.270Z,7.79
2023-03-22T04:11:08.595Z,7.79
2023-03-22T04:14:11.111Z,7.70
2023-03-22T04:17:13.591Z,7.67
2023-03-22T04:20:15.959Z,7.67
2023-03-22T04:23:18.080Z,7.43
2023-03-22T04:26:23.701Z,7.22
2023-03-22T04:29:51.199Z,7.09
2023-03-22T04:33:15.349Z,6.94
2023-03-22T04:36:39.475Z,7.16
2023-03-22T04:40:17.249Z,7.40
2023-03-22T04:43:47.155Z,7.50
2023-03-22T04:46:52.485Z,7.57
2023-03-22T04:49:54.661Z,7.51
2023-03-22T04:52:58.487Z,7.63
2023-03-22T04:56:02.757Z,7.47
2023-03-22T04:59:06.528Z,7.51
2023-03-22T05:02:09.153Z,7.53
2023-03-22T05:05:16.526Z,7.40
2023-03-22T05:08:22.180Z,7.39
2023-03-22T05:11:27.917Z,7.44
2023-03-22T05:14:53.063Z,7.51
2023-03-22T05:17:59.695Z,7.52
2023-03-22T05:21:04.025Z,7.45
2023-03-22T05:24:07.059Z,7.38
2023-03-22T05:27:11.032Z,7.61
2023-03-22T05:30:14.340Z,7.38
2023-03-22T05:33:29.789Z,7.52
2023-03-22T05:36:36.576Z,7.61
2023-03-22T05:40:05.566Z,7.52
2023-03-22T05:43:13.692Z,7.27
2023-03-22T05:46:20.727Z,7.45
2023-03-22T05:49:47.075Z,7.42
2023-03-22T05:52:50.430Z,7.88
2023-03-22T05:56:10.116Z,7.88
2023-03-22T05:59:14.276Z,8.04
2023-03-22T06:02:16.638Z,8.46
2023-03-22T06:05:19.838Z,8.25
2023-03-22T06:08:26.525Z,8.60
2023-03-22T06:11:30.686Z,8.81
2023-03-22T06:14:33.055Z,9.09
2023-03-22T06:17:45.854Z,9.15
2023-03-22T06:20:51.914Z,9.54
2023-03-22T06:23:56.788Z,9.62
2023-03-22T06:26:59.857Z,10.03
2023-03-22T06:30:03.525Z,10.00
2023-03-22T06:33:11.277Z,9.96
2023-03-22T06:36:17.156Z,9.86
2023-03-22T06:39:36.223Z,10.05
2023-03-22T06:42:38.750Z,10.11
2023-03-22T06:45:47.230Z,9.96
2023-03-22T06:48:50.417Z,9.64
2023-03-22T06:51:52.634Z,9.27
2023-03-22T06:54:55.223Z,9.02
2023-03-22T06:57:57.288Z,9.04
2023-03-22T07:00:59.664Z,9.32
2023-03-22T07:04:04.539Z,8.96
2023-03-22T07:07:06.753Z,9.31
2023-03-22T07:10:11.054Z,9.30
2023-03-22T07:13:14.018Z,9.59
2023-03-22T07:16:18.746Z,9.80
2023-03-22T07:19:32.672Z,9.98
2023-03-22T07:22:39.988Z,10.39
2023-03-22T07:25:43.636Z,10.54
2023-03-22T07:29:12.013Z,10.95
2023-03-22T07:32:14.440Z,10.79
2023-03-22T07:35:34.226Z,10.53
2023-03-22T07:38:37.285Z,10.65
2023-03-22T07:41:43.999Z,10.57
2023-03-22T07:44:58.274Z,10.65
2023-03-22T07:48:00.497Z,11.19
2023-03-22T07:51:21.259Z,11.99
2023-03-22T07:54:33.418Z,11.97
2023-03-22T07:57:38.749Z,11.78
2023-03-22T08:00:41.619Z,11.99
2023-03-22T08:04:22.626Z,11.98
2023-03-22T08:07:38.995Z,11.98
2023-03-22T08:10:41.316Z,11.57
2023-03-22T08:13:43.667Z,11.89
2023-03-22T08:16:46.906Z,12.03
2023-03-22T08:19:50.150Z,12.35
2023-03-22T08:22:57.789Z,12.69
2023-03-22T08:26:02.587Z,13.05
2023-03-22T08:29:04.819Z,13.45
2023-03-22T08:32:10.515Z,13.34
2023-03-22T08:35:13.097Z,13.40
2023-03-22T08:38:16.653Z,13.70
2023-03-22T08:41:23.751Z,13.51
2023-03-22T08:44:26.559Z,14.01
2023-03-22T08:47:29.676Z,14.13
2023-03-22T08:50:35.989Z,13.97
2023-03-22T08:53:49.783Z,13.68
2023-03-22T08:57:16.600Z,13.94
2023-03-22T09:00:49.067Z,13.90
2023-03-22T09:04:09.545Z,14.39
2023-03-22T09:07:12.852Z,14.41
2023-03-22T09:10:17.103Z,14.18
2023-03-22T09:13:22.007Z,14.02
2023-03-22T09:16:36.001Z,14.08
2023-03-22T09:19:38.259Z,13.91
2023-03-22T09:22:41.361Z,13.95
2023-03-22T09:25:46.643Z,14.76
2023-03-22T09:28:51.041Z,14.97
2023-03-22T09:31:53.765Z,14.90
2023-03-22T09:35:03.933Z,14.72
2023-03-22T09:38:14.064Z,14.82
2023-03-22T09:41:26.562Z,14.83
2023-03-22T09:44:38.178Z,15.08
2023-03-22T09:47:47.858Z,14.61
2023-03-22T09:50:53.492Z,14.81
2023-03-22T09:53:55.764Z,14.26
2023-03-22T09:57:04.209Z,15.11
2023-03-22T10:00:11.793Z,15.56
2023-03-22T10:03:44.439Z,15.83
2023-03-22T10:06:51.418Z,15.63
2023-03-22T10:10:21.790Z,15.60
2023-03-22T10:13:36.264Z,16.00
2023-03-22T10:16:39.786Z,16.13
2023-03-22T10:19:56.100Z,16.11
2023-03-22T10:23:01.941Z,16.37
2023-03-22T10:26:06.100Z,16.31
2023-03-22T10:29:18.319Z,16.57
2023-03-22T10:32:54.750Z,16.81
2023-03-22T10:35:59.817Z,16.86
2023-03-22T10:39:16.770Z,16.62
2023-03-22T10:42:30.531Z,16.83
2023-03-22T10:45:35.200Z,17.24
2023-03-22T10:48:42.143Z,17.23
2023-03-22T10:51:49.396Z,16.78
2023-03-22T10:54:51.840Z,16.85
2023-03-22T10:58:16.891Z,17.09
2023-03-22T11:01:33.137Z,16.82
2023-03-22T11:04:37.502Z,16.90
2023-03-22T11:07:45.030Z,16.77
2023-03-22T11:10:51.567Z,16.31
2023-03-22T11:13:55.521Z,17.01
2023-03-22T11:17:06.607Z,17.30
2023-03-22T11:20:16.854Z,17.15
2023-03-22T11:23:21.682Z,17.54
2023-03-22T11:26:30.952Z,17.59
2023-03-22T11:29:48.966Z,17.48
2023-03-22T11:33:21.130Z,17.26
2023-03-22T11:36:24.514Z,17.43
2023-03-22T11:39:28.817Z,17.00
2023-03-22T11:42:34.192Z,17.18
2023-03-22T11:45:41.220Z,16.46
2023-03-22T11:48:46.468Z,17.02
2023-03-22T11:51:48.991Z,17.34
2023-03-22T11:54:52.844Z,17.37
2023-03-22T11:57:58.581Z,17.63
2023-03-22T12:01:03.004Z,17.67
2023-03-22T12:04:11.571Z,18.07
2023-03-22T12:07:17.459Z,18.03
2023-03-22T12:10:30.095Z,17.82
2023-03-22T12:13:47.041Z,17.91
2023-03-22T12:17:34.241Z,18.05
2023-03-22T12:20:47.653Z,17.58
2023-03-22T12:23:49.753Z,18.01
2023-03-22T12:26:56.394Z,18.00
2023-03-22T12:30:08.514Z,17.15
2023-03-22T12:33:25.537Z,17.88
2023-03-22T12:36:38.280Z,17.69
2023-03-22T12:39:46.322Z,17.63
2023-03-22T12:43:21.674Z,17.39
2023-03-22T12:46:28.303Z,17.45
2023-03-22T12:49:40.513Z,17.39
2023-03-22T12:52:47.328Z,17.48
2023-03-22T12:55:50.538Z,17.44
2023-03-22T12:59:01.520Z,17.11
2023-03-22T13:02:27.733Z,17.44
2023-03-22T13:05:34.164Z,17.36
2023-03-22T13:09:16.274Z,17.59
2023-03-22T13:12:19.089Z,17.41
2023-03-22T13:15:42.620Z,17.52
2023-03-22T13:18:45.362Z,17.60
2023-03-22T13:21:48.960Z,17.55
2023-03-22T13:25:00.364Z,17.68
2023-03-22T13:28:19.874Z,17.93
2023-03-22T13:31:37.590Z,18.20
2023-03-22T13:34:46.803Z,18.14
2023-03-22T13:37:50.679Z,18.19
2023-03-22T13:40:53.175Z,18.14
2023-03-22T13:44:01.688Z,17.81
2023-03-22T13:47:07.735Z,17.91
2023-03-22T13:50:34.592Z,18.16
2023-03-22T13:53:37.522Z,18.43
2023-03-22T13:56:43.148Z,18.42
2023-03-22T14:00:14.388Z,17.83
2023-03-22T14:03:27.743Z,18.18
2023-03-22T14:06:35.605Z,18.30
2023-03-22T14:09:49.607Z,17.97
2023-03-22T14:12:54.636Z,17.94
2023-03-22T14:16:04.042Z,17.87
2023-03-22T14:19:09.196Z,18.09
